sensor_id;sensor_type;location;lat;lon;timestamp;P1;durP1;ratioP1;P2;durP2;ratioP2
75691;SDS011;64307;52.508;6.090;2023-02-23T00:01:19;53.92;;;25.02;;
75691;SDS011;64307;52.508;6.090;2023-02-23T00:03:47;54.50;;;25.70;;
75691;SDS011;64307;52.508;6.090;2023-02-23T00:06:14;55.92;;;24.20;;
75691;SDS011;64307;52.508;6.090;2023-02-23T00:08:41;58.88;;;25.73;;
75691;SDS011;64307;52.508;6.090;2023-02-23T00:11:08;61.13;;;26.00;;
75691;SDS011;64307;52.508;6.090;2023-02-23T00:13:38;55.15;;;26.08;;
75691;SDS011;64307;52.508;6.090;2023-02-23T00:16:06;60.35;;;25.95;;
75691;SDS011;64307;52.508;6.090;2023-02-23T00:18:32;60.47;;;26.10;;
75691;SDS011;64307;52.508;6.090;2023-02-23T00:21:09;61.80;;;25.52;;
75691;SDS011;64307;52.508;6.090;2023-02-23T00:23:39;58.33;;;24.55;;
75691;SDS011;64307;52.508;6.090;2023-02-23T00:26:08;61.50;;;27.17;;
75691;SDS011;64307;52.508;6.090;2023-02-23T00:28:34;57.00;;;25.57;;
75691;SDS011;64307;52.508;6.090;2023-02-23T00:31:02;59.50;;;26.33;;
75691;SDS011;64307;52.508;6.090;2023-02-23T00:33:28;63.17;;;25.70;;
75691;SDS011;64307;52.508;6.090;2023-02-23T00:36:01;65.68;;;25.77;;
75691;SDS011;64307;52.508;6.090;2023-02-23T00:38:29;58.13;;;25.55;;
75691;SDS011;64307;52.508;6.090;2023-02-23T00:40:58;60.17;;;26.00;;
75691;SDS011;64307;52.508;6.090;2023-02-23T00:43:24;57.75;;;25.80;;
75691;SDS011;64307;52.508;6.090;2023-02-23T00:45:53;63.30;;;26.63;;
75691;SDS011;64307;52.508;6.090;2023-02-23T00:48:19;66.38;;;26.90;;
75691;SDS011;64307;52.508;6.090;2023-02-23T00:50:44;61.53;;;25.02;;
75691;SDS011;64307;52.508;6.090;2023-02-23T00:53:10;59.97;;;25.60;;
75691;SDS011;64307;52.508;6.090;2023-02-23T00:55:35;59.43;;;25.27;;
75691;SDS011;64307;52.508;6.090;2023-02-23T00:58:05;59.60;;;25.52;;
75691;SDS011;64307;52.508;6.090;2023-02-23T01:00:33;57.58;;;25.35;;
75691;SDS011;64307;52.508;6.090;2023-02-23T01:03:06;60.45;;;25.85;;
75691;SDS011;64307;52.508;6.090;2023-02-23T01:05:35;54.45;;;24.88;;
75691;SDS011;64307;52.508;6.090;2023-02-23T01:08:00;59.40;;;26.02;;
75691;SDS011;64307;52.508;6.090;2023-02-23T01:10:25;64.15;;;24.83;;
75691;SDS011;64307;52.508;6.090;2023-02-23T01:12:51;63.35;;;27.05;;
75691;SDS011;64307;52.508;6.090;2023-02-23T01:17:43;57.25;;;24.55;;
75691;SDS011;64307;52.508;6.090;2023-02-23T01:20:13;54.88;;;25.20;;
75691;SDS011;64307;52.508;6.090;2023-02-23T01:22:46;57.25;;;24.85;;
75691;SDS011;64307;52.508;6.090;2023-02-23T01:25:14;60.55;;;25.20;;
75691;SDS011;64307;52.508;6.090;2023-02-23T01:27:40;54.42;;;25.00;;
75691;SDS011;64307;52.508;6.090;2023-02-23T01:30:08;64.55;;;27.30;;
75691;SDS011;64307;52.508;6.090;2023-02-23T01:32:35;57.60;;;25.05;;
75691;SDS011;64307;52.508;6.090;2023-02-23T01:35:03;62.97;;;26.05;;
75691;SDS011;64307;52.508;6.090;2023-02-23T01:37:30;59.80;;;25.63;;
75691;SDS011;64307;52.508;6.090;2023-02-23T01:39:59;60.83;;;24.88;;
75691;SDS011;64307;52.508;6.090;2023-02-23T01:42:24;58.83;;;24.05;;
75691;SDS011;64307;52.508;6.090;2023-02-23T01:45:12;59.17;;;25.20;;
75691;SDS011;64307;52.508;6.090;2023-02-23T01:47:45;56.88;;;24.15;;
75691;SDS011;64307;52.508;6.090;2023-02-23T01:50:11;56.05;;;24.38;;
75691;SDS011;64307;52.508;6.090;2023-02-23T01:52:40;56.55;;;24.63;;
75691;SDS011;64307;52.508;6.090;2023-02-23T01:55:07;53.10;;;22.60;;
75691;SDS011;64307;52.508;6.090;2023-02-23T01:57:37;59.63;;;24.33;;
75691;SDS011;64307;52.508;6.090;2023-02-23T02:00:04;60.30;;;24.45;;
75691;SDS011;64307;52.508;6.090;2023-02-23T02:02:39;62.22;;;24.35;;
75691;SDS011;64307;52.508;6.090;2023-02-23T02:05:04;63.58;;;25.35;;
75691;SDS011;64307;52.508;6.090;2023-02-23T02:07:37;61.55;;;25.88;;
75691;SDS011;64307;52.508;6.090;2023-02-23T02:10:05;59.38;;;25.52;;
75691;SDS011;64307;52.508;6.090;2023-02-23T02:12:35;55.15;;;23.40;;
75691;SDS011;64307;52.508;6.090;2023-02-23T02:15:00;64.75;;;25.08;;
75691;SDS011;64307;52.508;6.090;2023-02-23T02:25:53;54.80;;;22.80;;
75691;SDS011;64307;52.508;6.090;2023-02-23T02:28:42;55.35;;;23.13;;
75691;SDS011;64307;52.508;6.090;2023-02-23T02:39:27;64.45;;;24.35;;
75691;SDS011;64307;52.508;6.090;2023-02-23T02:44:37;59.58;;;24.20;;
75691;SDS011;64307;52.508;6.090;2023-02-23T02:47:31;59.17;;;23.95;;
75691;SDS011;64307;52.508;6.090;2023-02-23T02:50:04;59.72;;;23.90;;
75691;SDS011;64307;52.508;6.090;2023-02-23T02:52:54;57.65;;;22.63;;
75691;SDS011;64307;52.508;6.090;2023-02-23T02:55:26;55.90;;;23.33;;
75691;SDS011;64307;52.508;6.090;2023-02-23T02:57:54;56.38;;;24.05;;
75691;SDS011;64307;52.508;6.090;2023-02-23T03:00:24;59.05;;;23.92;;
75691;SDS011;64307;52.508;6.090;2023-02-23T03:06:14;66.05;;;24.73;;
75691;SDS011;64307;52.508;6.090;2023-02-23T03:09:00;64.97;;;24.65;;
75691;SDS011;64307;52.508;6.090;2023-02-23T03:12:16;59.83;;;24.27;;
75691;SDS011;64307;52.508;6.090;2023-02-23T03:18:40;58.10;;;23.70;;
75691;SDS011;64307;52.508;6.090;2023-02-23T03:21:30;59.95;;;24.73;;
75691;SDS011;64307;52.508;6.090;2023-02-23T03:27:34;66.55;;;24.23;;
75691;SDS011;64307;52.508;6.090;2023-02-23T03:33:19;59.03;;;24.10;;
75691;SDS011;64307;52.508;6.090;2023-02-23T03:36:24;60.75;;;24.15;;
75691;SDS011;64307;52.508;6.090;2023-02-23T03:39:23;58.88;;;24.08;;
75691;SDS011;64307;52.508;6.090;2023-02-23T03:42:16;57.90;;;24.20;;
75691;SDS011;64307;52.508;6.090;2023-02-23T03:45:05;64.22;;;25.73;;
75691;SDS011;64307;52.508;6.090;2023-02-23T03:47:54;63.97;;;26.55;;
75691;SDS011;64307;52.508;6.090;2023-02-23T03:50:42;63.47;;;25.50;;
75691;SDS011;64307;52.508;6.090;2023-02-23T03:53:39;61.83;;;24.67;;
75691;SDS011;64307;52.508;6.090;2023-02-23T03:56:29;59.50;;;25.00;;
75691;SDS011;64307;52.508;6.090;2023-02-23T03:59:17;62.78;;;25.40;;
75691;SDS011;64307;52.508;6.090;2023-02-23T04:02:07;63.45;;;26.45;;
75691;SDS011;64307;52.508;6.090;2023-02-23T04:04:53;63.80;;;25.92;;
75691;SDS011;64307;52.508;6.090;2023-02-23T04:07:41;59.72;;;25.52;;
75691;SDS011;64307;52.508;6.090;2023-02-23T04:10:28;61.15;;;24.58;;
75691;SDS011;64307;52.508;6.090;2023-02-23T04:13:16;62.38;;;23.90;;
75691;SDS011;64307;52.508;6.090;2023-02-23T04:18:18;63.13;;;25.05;;
75691;SDS011;64307;52.508;6.090;2023-02-23T04:20:47;62.80;;;26.08;;
75691;SDS011;64307;52.508;6.090;2023-02-23T04:23:12;61.25;;;25.25;;
75691;SDS011;64307;52.508;6.090;2023-02-23T04:25:38;68.18;;;26.30;;
75691;SDS011;64307;52.508;6.090;2023-02-23T04:28:03;64.00;;;26.57;;
75691;SDS011;64307;52.508;6.090;2023-02-23T04:30:28;65.90;;;27.30;;
75691;SDS011;64307;52.508;6.090;2023-02-23T04:32:54;62.22;;;24.95;;
75691;SDS011;64307;52.508;6.090;2023-02-23T04:35:20;64.78;;;26.02;;
75691;SDS011;64307;52.508;6.090;2023-02-23T04:37:45;66.47;;;25.70;;
75691;SDS011;64307;52.508;6.090;2023-02-23T04:40:11;66.65;;;25.52;;
75691;SDS011;64307;52.508;6.090;2023-02-23T04:42:37;65.53;;;26.30;;
75691;SDS011;64307;52.508;6.090;2023-02-23T04:45:04;64.97;;;26.58;;
75691;SDS011;64307;52.508;6.090;2023-02-23T04:47:30;67.90;;;26.55;;
75691;SDS011;64307;52.508;6.090;2023-02-23T04:49:55;59.60;;;25.83;;
75691;SDS011;64307;52.508;6.090;2023-02-23T04:52:20;64.60;;;25.43;;
75691;SDS011;64307;52.508;6.090;2023-02-23T04:54:45;62.83;;;25.27;;
75691;SDS011;64307;52.508;6.090;2023-02-23T04:57:11;56.03;;;25.20;;
75691;SDS011;64307;52.508;6.090;2023-02-23T04:59:36;65.65;;;25.95;;
75691;SDS011;64307;52.508;6.090;2023-02-23T05:02:01;56.63;;;24.10;;
75691;SDS011;64307;52.508;6.090;2023-02-23T05:04:27;59.38;;;25.00;;
75691;SDS011;64307;52.508;6.090;2023-02-23T05:06:52;63.28;;;24.73;;
75691;SDS011;64307;52.508;6.090;2023-02-23T05:09:18;62.85;;;25.17;;
75691;SDS011;64307;52.508;6.090;2023-02-23T05:11:44;63.75;;;25.52;;
75691;SDS011;64307;52.508;6.090;2023-02-23T05:14:10;63.75;;;25.23;;
75691;SDS011;64307;52.508;6.090;2023-02-23T05:16:36;61.10;;;25.58;;
75691;SDS011;64307;52.508;6.090;2023-02-23T05:19:02;61.63;;;24.27;;
75691;SDS011;64307;52.508;6.090;2023-02-23T05:21:28;64.70;;;26.23;;
75691;SDS011;64307;52.508;6.090;2023-02-23T05:23:53;63.78;;;24.90;;
75691;SDS011;64307;52.508;6.090;2023-02-23T05:26:18;61.72;;;24.65;;
75691;SDS011;64307;52.508;6.090;2023-02-23T05:28:44;60.15;;;23.55;;
75691;SDS011;64307;52.508;6.090;2023-02-23T05:31:09;57.35;;;23.88;;
75691;SDS011;64307;52.508;6.090;2023-02-23T05:33:35;58.08;;;22.83;;
75691;SDS011;64307;52.508;6.090;2023-02-23T05:36:13;54.92;;;23.05;;
75691;SDS011;64307;52.508;6.090;2023-02-23T05:38:43;55.60;;;23.15;;
75691;SDS011;64307;52.508;6.090;2023-02-23T05:41:13;56.50;;;23.42;;
75691;SDS011;64307;52.508;6.090;2023-02-23T05:43:40;64.35;;;23.52;;
75691;SDS011;64307;52.508;6.090;2023-02-23T05:46:10;54.03;;;22.77;;
75691;SDS011;64307;52.508;6.090;2023-02-23T05:48:37;61.45;;;23.20;;
75691;SDS011;64307;52.508;6.090;2023-02-23T05:51:03;61.65;;;24.20;;
75691;SDS011;64307;52.508;6.090;2023-02-23T05:53:30;59.95;;;25.08;;
75691;SDS011;64307;52.508;6.090;2023-02-23T05:55:56;59.72;;;24.48;;
75691;SDS011;64307;52.508;6.090;2023-02-23T05:58:21;60.20;;;24.10;;
75691;SDS011;64307;52.508;6.090;2023-02-23T06:00:46;54.15;;;21.88;;
75691;SDS011;64307;52.508;6.090;2023-02-23T06:03:12;56.73;;;22.27;;
75691;SDS011;64307;52.508;6.090;2023-02-23T06:05:37;53.43;;;22.97;;
75691;SDS011;64307;52.508;6.090;2023-02-23T06:08:02;56.43;;;22.60;;
75691;SDS011;64307;52.508;6.090;2023-02-23T06:10:27;59.35;;;22.40;;
75691;SDS011;64307;52.508;6.090;2023-02-23T06:12:53;56.90;;;21.90;;
75691;SDS011;64307;52.508;6.090;2023-02-23T06:15:18;54.95;;;22.30;;
75691;SDS011;64307;52.508;6.090;2023-02-23T06:17:43;54.35;;;21.85;;
75691;SDS011;64307;52.508;6.090;2023-02-23T06:20:09;56.53;;;21.35;;
75691;SDS011;64307;52.508;6.090;2023-02-23T06:22:35;55.67;;;21.40;;
75691;SDS011;64307;52.508;6.090;2023-02-23T06:25:00;51.50;;;20.63;;
75691;SDS011;64307;52.508;6.090;2023-02-23T06:27:30;57.90;;;22.00;;
75691;SDS011;64307;52.508;6.090;2023-02-23T06:29:55;51.95;;;21.13;;
75691;SDS011;64307;52.508;6.090;2023-02-23T06:32:21;54.20;;;22.25;;
75691;SDS011;64307;52.508;6.090;2023-02-23T06:34:46;54.60;;;21.57;;
75691;SDS011;64307;52.508;6.090;2023-02-23T06:37:11;55.90;;;22.07;;
75691;SDS011;64307;52.508;6.090;2023-02-23T06:39:36;56.65;;;21.60;;
75691;SDS011;64307;52.508;6.090;2023-02-23T06:42:03;59.05;;;22.20;;
75691;SDS011;64307;52.508;6.090;2023-02-23T06:44:28;50.03;;;20.53;;
75691;SDS011;64307;52.508;6.090;2023-02-23T06:46:53;50.13;;;20.48;;
75691;SDS011;64307;52.508;6.090;2023-02-23T06:49:19;51.72;;;20.52;;
75691;SDS011;64307;52.508;6.090;2023-02-23T06:51:44;54.87;;;20.90;;
75691;SDS011;64307;52.508;6.090;2023-02-23T06:54:09;52.28;;;20.85;;
75691;SDS011;64307;52.508;6.090;2023-02-23T06:56:35;54.87;;;21.43;;
75691;SDS011;64307;52.508;6.090;2023-02-23T06:59:00;51.07;;;20.17;;
75691;SDS011;64307;52.508;6.090;2023-02-23T07:01:25;54.43;;;20.53;;
75691;SDS011;64307;52.508;6.090;2023-02-23T07:03:50;52.27;;;21.17;;
75691;SDS011;64307;52.508;6.090;2023-02-23T07:06:16;50.22;;;20.00;;
75691;SDS011;64307;52.508;6.090;2023-02-23T07:08:41;54.55;;;21.08;;
75691;SDS011;64307;52.508;6.090;2023-02-23T07:11:13;52.47;;;20.75;;
75691;SDS011;64307;52.508;6.090;2023-02-23T07:13:39;55.28;;;20.75;;
75691;SDS011;64307;52.508;6.090;2023-02-23T07:16:06;55.13;;;21.67;;
75691;SDS011;64307;52.508;6.090;2023-02-23T07:18:32;53.58;;;22.02;;
75691;SDS011;64307;52.508;6.090;2023-02-23T07:20:57;52.83;;;21.63;;
75691;SDS011;64307;52.508;6.090;2023-02-23T07:23:23;52.08;;;20.40;;
75691;SDS011;64307;52.508;6.090;2023-02-23T07:25:49;50.80;;;19.75;;
75691;SDS011;64307;52.508;6.090;2023-02-23T07:28:15;52.65;;;21.65;;
75691;SDS011;64307;52.508;6.090;2023-02-23T07:30:40;54.15;;;20.67;;
75691;SDS011;64307;52.508;6.090;2023-02-23T07:33:06;50.25;;;20.48;;
75691;SDS011;64307;52.508;6.090;2023-02-23T07:35:31;53.57;;;20.73;;
75691;SDS011;64307;52.508;6.090;2023-02-23T07:37:56;52.03;;;20.67;;
75691;SDS011;64307;52.508;6.090;2023-02-23T07:40:22;51.17;;;20.33;;
75691;SDS011;64307;52.508;6.090;2023-02-23T07:42:47;51.50;;;19.83;;
75691;SDS011;64307;52.508;6.090;2023-02-23T07:45:12;53.13;;;21.60;;
75691;SDS011;64307;52.508;6.090;2023-02-23T07:47:38;48.50;;;19.58;;
75691;SDS011;64307;52.508;6.090;2023-02-23T07:50:05;50.70;;;19.80;;
75691;SDS011;64307;52.508;6.090;2023-02-23T07:52:36;53.75;;;19.70;;
75691;SDS011;64307;52.508;6.090;2023-02-23T07:55:02;52.72;;;21.40;;
75691;SDS011;64307;52.508;6.090;2023-02-23T07:59:53;51.80;;;19.03;;
75691;SDS011;64307;52.508;6.090;2023-02-23T08:02:18;48.85;;;19.55;;
75691;SDS011;64307;52.508;6.090;2023-02-23T08:04:43;52.97;;;20.13;;
75691;SDS011;64307;52.508;6.090;2023-02-23T08:07:09;53.72;;;22.20;;
75691;SDS011;64307;52.508;6.090;2023-02-23T08:09:34;50.45;;;20.05;;
75691;SDS011;64307;52.508;6.090;2023-02-23T08:12:01;50.25;;;21.02;;
75691;SDS011;64307;52.508;6.090;2023-02-23T08:16:53;52.67;;;19.33;;
75691;SDS011;64307;52.508;6.090;2023-02-23T08:19:18;48.20;;;19.67;;
75691;SDS011;64307;52.508;6.090;2023-02-23T08:21:48;47.30;;;18.48;;
75691;SDS011;64307;52.508;6.090;2023-02-23T08:26:40;47.95;;;18.10;;
75691;SDS011;64307;52.508;6.090;2023-02-23T08:29:07;47.58;;;19.40;;
75691;SDS011;64307;52.508;6.090;2023-02-23T08:31:33;55.65;;;20.67;;
75691;SDS011;64307;52.508;6.090;2023-02-23T08:36:24;48.95;;;20.00;;
75691;SDS011;64307;52.508;6.090;2023-02-23T08:38:50;51.90;;;19.65;;
75691;SDS011;64307;52.508;6.090;2023-02-23T08:41:16;48.60;;;19.45;;
75691;SDS011;64307;52.508;6.090;2023-02-23T08:43:41;53.20;;;20.17;;
75691;SDS011;64307;52.508;6.090;2023-02-23T08:46:07;49.33;;;19.20;;
75691;SDS011;64307;52.508;6.090;2023-02-23T08:48:32;49.13;;;19.92;;
75691;SDS011;64307;52.508;6.090;2023-02-23T08:53:25;44.97;;;17.90;;
75691;SDS011;64307;52.508;6.090;2023-02-23T08:56:03;46.05;;;18.23;;
75691;SDS011;64307;52.508;6.090;2023-02-23T08:58:30;47.58;;;18.98;;
75691;SDS011;64307;52.508;6.090;2023-02-23T09:00:56;51.85;;;19.75;;
75691;SDS011;64307;52.508;6.090;2023-02-23T09:03:22;49.25;;;21.30;;
75691;SDS011;64307;52.508;6.090;2023-02-23T09:05:50;46.78;;;18.23;;
75691;SDS011;64307;52.508;6.090;2023-02-23T09:08:16;50.55;;;20.38;;
75691;SDS011;64307;52.508;6.090;2023-02-23T09:10:41;49.38;;;18.90;;
75691;SDS011;64307;52.508;6.090;2023-02-23T09:13:08;47.42;;;19.00;;
75691;SDS011;64307;52.508;6.090;2023-02-23T09:15:35;47.90;;;18.83;;
75691;SDS011;64307;52.508;6.090;2023-02-23T09:18:01;48.72;;;19.13;;
75691;SDS011;64307;52.508;6.090;2023-02-23T09:20:26;52.58;;;21.00;;
75691;SDS011;64307;52.508;6.090;2023-02-23T09:22:51;50.22;;;18.85;;
75691;SDS011;64307;52.508;6.090;2023-02-23T09:25:18;50.58;;;19.85;;
75691;SDS011;64307;52.508;6.090;2023-02-23T09:27:46;53.17;;;19.70;;
75691;SDS011;64307;52.508;6.090;2023-02-23T09:30:16;50.92;;;18.90;;
75691;SDS011;64307;52.508;6.090;2023-02-23T09:32:44;50.35;;;19.92;;
75691;SDS011;64307;52.508;6.090;2023-02-23T09:35:14;54.03;;;20.60;;
75691;SDS011;64307;52.508;6.090;2023-02-23T09:37:49;51.95;;;19.63;;
75691;SDS011;64307;52.508;6.090;2023-02-23T09:40:19;54.13;;;19.15;;
75691;SDS011;64307;52.508;6.090;2023-02-23T09:45:22;53.80;;;20.75;;
75691;SDS011;64307;52.508;6.090;2023-02-23T09:50:27;57.42;;;21.00;;
75691;SDS011;64307;52.508;6.090;2023-02-23T09:52:56;56.30;;;21.08;;
75691;SDS011;64307;52.508;6.090;2023-02-23T09:55:27;52.03;;;19.80;;
75691;SDS011;64307;52.508;6.090;2023-02-23T09:57:53;52.97;;;20.08;;
75691;SDS011;64307;52.508;6.090;2023-02-23T10:00:30;51.67;;;19.60;;
75691;SDS011;64307;52.508;6.090;2023-02-23T10:03:16;51.60;;;19.27;;
75691;SDS011;64307;52.508;6.090;2023-02-23T10:05:51;55.97;;;20.58;;
75691;SDS011;64307;52.508;6.090;2023-02-23T10:11:33;55.00;;;20.10;;
75691;SDS011;64307;52.508;6.090;2023-02-23T10:22:08;44.55;;;17.60;;
75691;SDS011;64307;52.508;6.090;2023-02-23T10:24:37;40.90;;;17.77;;
75691;SDS011;64307;52.508;6.090;2023-02-23T10:27:13;42.92;;;17.58;;
75691;SDS011;64307;52.508;6.090;2023-02-23T10:29:42;44.53;;;16.35;;
75691;SDS011;64307;52.508;6.090;2023-02-23T10:35:13;39.50;;;15.27;;
75691;SDS011;64307;52.508;6.090;2023-02-23T10:37:40;36.72;;;13.88;;
75691;SDS011;64307;52.508;6.090;2023-02-23T10:40:05;34.20;;;14.70;;
75691;SDS011;64307;52.508;6.090;2023-02-23T10:42:32;35.95;;;14.35;;
75691;SDS011;64307;52.508;6.090;2023-02-23T10:44:58;35.50;;;14.52;;
75691;SDS011;64307;52.508;6.090;2023-02-23T10:47:28;38.55;;;14.82;;
75691;SDS011;64307;52.508;6.090;2023-02-23T10:49:56;35.00;;;14.38;;
75691;SDS011;64307;52.508;6.090;2023-02-23T10:52:30;38.55;;;15.15;;
75691;SDS011;64307;52.508;6.090;2023-02-23T10:54:58;36.78;;;13.98;;
75691;SDS011;64307;52.508;6.090;2023-02-23T11:02:24;31.05;;;13.23;;
75691;SDS011;64307;52.508;6.090;2023-02-23T11:04:54;31.85;;;11.82;;
75691;SDS011;64307;52.508;6.090;2023-02-23T11:07:31;26.63;;;11.80;;
75691;SDS011;64307;52.508;6.090;2023-02-23T11:09:58;24.73;;;10.57;;
75691;SDS011;64307;52.508;6.090;2023-02-23T11:12:42;28.90;;;11.23;;
75691;SDS011;64307;52.508;6.090;2023-02-23T11:18:00;27.92;;;11.02;;
75691;SDS011;64307;52.508;6.090;2023-02-23T11:20:33;28.38;;;10.63;;
75691;SDS011;64307;52.508;6.090;2023-02-23T11:23:10;27.80;;;10.95;;
75691;SDS011;64307;52.508;6.090;2023-02-23T11:25:41;29.17;;;10.98;;
75691;SDS011;64307;52.508;6.090;2023-02-23T11:28:18;27.25;;;11.02;;
75691;SDS011;64307;52.508;6.090;2023-02-23T11:30:50;31.65;;;13.05;;
75691;SDS011;64307;52.508;6.090;2023-02-23T11:33:16;27.80;;;10.93;;
75691;SDS011;64307;52.508;6.090;2023-02-23T11:35:49;30.30;;;11.43;;
75691;SDS011;64307;52.508;6.090;2023-02-23T11:38:24;21.75;;;9.32;;
75691;SDS011;64307;52.508;6.090;2023-02-23T11:41:02;19.00;;;7.70;;
75691;SDS011;64307;52.508;6.090;2023-02-23T11:43:29;18.80;;;7.70;;
75691;SDS011;64307;52.508;6.090;2023-02-23T11:45:55;17.73;;;6.82;;
75691;SDS011;64307;52.508;6.090;2023-02-23T11:51:39;18.65;;;7.63;;
75691;SDS011;64307;52.508;6.090;2023-02-23T11:54:19;18.38;;;7.95;;
75691;SDS011;64307;52.508;6.090;2023-02-23T11:56:50;21.10;;;8.68;;
75691;SDS011;64307;52.508;6.090;2023-02-23T11:59:19;21.95;;;8.40;;
75691;SDS011;64307;52.508;6.090;2023-02-23T12:04:25;22.38;;;8.10;;
75691;SDS011;64307;52.508;6.090;2023-02-23T12:06:55;24.88;;;9.52;;
75691;SDS011;64307;52.508;6.090;2023-02-23T12:12:50;24.73;;;10.23;;
75691;SDS011;64307;52.508;6.090;2023-02-23T12:15:23;26.63;;;9.93;;
75691;SDS011;64307;52.508;6.090;2023-02-23T12:17:52;28.48;;;10.82;;
75691;SDS011;64307;52.508;6.090;2023-02-23T12:20:24;26.42;;;11.30;;
75691;SDS011;64307;52.508;6.090;2023-02-23T12:22:58;26.38;;;10.60;;
75691;SDS011;64307;52.508;6.090;2023-02-23T12:25:36;27.15;;;11.07;;
75691;SDS011;64307;52.508;6.090;2023-02-23T12:28:17;29.48;;;11.93;;
75691;SDS011;64307;52.508;6.090;2023-02-23T12:30:55;35.05;;;13.25;;
75691;SDS011;64307;52.508;6.090;2023-02-23T12:33:27;31.10;;;12.57;;
75691;SDS011;64307;52.508;6.090;2023-02-23T12:36:00;36.03;;;13.18;;
75691;SDS011;64307;52.508;6.090;2023-02-23T12:38:55;33.70;;;13.10;;
75691;SDS011;64307;52.508;6.090;2023-02-23T12:41:27;35.60;;;12.98;;
75691;SDS011;64307;52.508;6.090;2023-02-23T12:44:00;35.13;;;12.73;;
75691;SDS011;64307;52.508;6.090;2023-02-23T12:46:34;33.72;;;12.57;;
75691;SDS011;64307;52.508;6.090;2023-02-23T12:49:12;35.47;;;12.77;;
75691;SDS011;64307;52.508;6.090;2023-02-23T12:51:47;35.00;;;12.98;;
75691;SDS011;64307;52.508;6.090;2023-02-23T12:54:16;34.08;;;12.60;;
75691;SDS011;64307;52.508;6.090;2023-02-23T13:01:58;29.45;;;11.07;;
75691;SDS011;64307;52.508;6.090;2023-02-23T13:10:11;31.40;;;10.15;;
75691;SDS011;64307;52.508;6.090;2023-02-23T13:13:00;26.05;;;9.43;;
75691;SDS011;64307;52.508;6.090;2023-02-23T13:16:40;30.60;;;11.90;;
75691;SDS011;64307;52.508;6.090;2023-02-23T13:21:43;31.70;;;11.40;;
75691;SDS011;64307;52.508;6.090;2023-02-23T13:24:19;30.35;;;12.82;;
75691;SDS011;64307;52.508;6.090;2023-02-23T13:29:40;31.98;;;11.32;;
75691;SDS011;64307;52.508;6.090;2023-02-23T13:34:49;31.20;;;11.48;;
75691;SDS011;64307;52.508;6.090;2023-02-23T13:37:17;27.42;;;11.40;;
75691;SDS011;64307;52.508;6.090;2023-02-23T13:40:01;30.67;;;11.20;;
75691;SDS011;64307;52.508;6.090;2023-02-23T13:42:51;28.48;;;10.77;;
75691;SDS011;64307;52.508;6.090;2023-02-23T13:51:13;29.80;;;11.20;;
75691;SDS011;64307;52.508;6.090;2023-02-23T13:56:23;32.67;;;11.63;;
75691;SDS011;64307;52.508;6.090;2023-02-23T13:58:51;36.60;;;11.32;;
75691;SDS011;64307;52.508;6.090;2023-02-23T14:01:25;34.97;;;12.07;;
75691;SDS011;64307;52.508;6.090;2023-02-23T14:03:56;34.33;;;11.75;;
75691;SDS011;64307;52.508;6.090;2023-02-23T14:06:25;31.35;;;10.52;;
75691;SDS011;64307;52.508;6.090;2023-02-23T14:09:04;30.50;;;10.75;;
75691;SDS011;64307;52.508;6.090;2023-02-23T14:11:35;37.97;;;12.15;;
75691;SDS011;64307;52.508;6.090;2023-02-23T14:14:08;36.35;;;12.48;;
75691;SDS011;64307;52.508;6.090;2023-02-23T14:17:10;38.13;;;12.68;;
75691;SDS011;64307;52.508;6.090;2023-02-23T14:20:01;33.28;;;11.90;;
75691;SDS011;64307;52.508;6.090;2023-02-23T14:23:04;35.63;;;12.63;;
75691;SDS011;64307;52.508;6.090;2023-02-23T14:31:14;38.45;;;11.98;;
75691;SDS011;64307;52.508;6.090;2023-02-23T14:38:59;37.03;;;12.35;;
75691;SDS011;64307;52.508;6.090;2023-02-23T14:41:45;39.30;;;13.05;;
75691;SDS011;64307;52.508;6.090;2023-02-23T14:49:20;38.08;;;12.25;;
75691;SDS011;64307;52.508;6.090;2023-02-23T14:51:47;41.20;;;13.25;;
75691;SDS011;64307;52.508;6.090;2023-02-23T14:54:21;44.53;;;13.93;;
75691;SDS011;64307;52.508;6.090;2023-02-23T14:56:50;42.47;;;13.52;;
75691;SDS011;64307;52.508;6.090;2023-02-23T14:59:19;47.45;;;13.95;;
75691;SDS011;64307;52.508;6.090;2023-02-23T15:01:47;43.50;;;13.68;;
75691;SDS011;64307;52.508;6.090;2023-02-23T15:04:15;43.80;;;13.20;;
75691;SDS011;64307;52.508;6.090;2023-02-23T15:06:44;31.52;;;10.05;;
75691;SDS011;64307;52.508;6.090;2023-02-23T15:09:32;33.50;;;8.52;;
75691;SDS011;64307;52.508;6.090;2023-02-23T15:12:12;18.95;;;5.57;;
75691;SDS011;64307;52.508;6.090;2023-02-23T15:14:43;17.88;;;4.72;;
75691;SDS011;64307;52.508;6.090;2023-02-23T15:17:12;14.23;;;3.00;;
75691;SDS011;64307;52.508;6.090;2023-02-23T15:19:40;13.10;;;2.97;;
75691;SDS011;64307;52.508;6.090;2023-02-23T15:22:07;14.85;;;2.38;;
75691;SDS011;64307;52.508;6.090;2023-02-23T15:24:39;12.05;;;2.33;;
75691;SDS011;64307;52.508;6.090;2023-02-23T15:27:41;15.35;;;1.80;;
75691;SDS011;64307;52.508;6.090;2023-02-23T15:30:16;15.15;;;2.67;;
75691;SDS011;64307;52.508;6.090;2023-02-23T15:33:01;13.05;;;2.22;;
75691;SDS011;64307;52.508;6.090;2023-02-23T15:35:29;19.05;;;2.78;;
75691;SDS011;64307;52.508;6.090;2023-02-23T15:37:59;13.50;;;2.22;;
75691;SDS011;64307;52.508;6.090;2023-02-23T15:40:26;23.00;;;3.13;;
75691;SDS011;64307;52.508;6.090;2023-02-23T15:42:54;20.00;;;3.08;;
75691;SDS011;64307;52.508;6.090;2023-02-23T15:45:38;31.00;;;3.63;;
75691;SDS011;64307;52.508;6.090;2023-02-23T15:48:07;17.90;;;2.60;;
75691;SDS011;64307;52.508;6.090;2023-02-23T15:50:42;23.80;;;3.53;;
75691;SDS011;64307;52.508;6.090;2023-02-23T15:53:29;28.45;;;2.63;;
75691;SDS011;64307;52.508;6.090;2023-02-23T15:56:03;16.13;;;2.72;;
75691;SDS011;64307;52.508;6.090;2023-02-23T15:58:38;24.58;;;2.92;;
75691;SDS011;64307;52.508;6.090;2023-02-23T16:01:10;21.42;;;3.47;;
75691;SDS011;64307;52.508;6.090;2023-02-23T16:03:37;16.15;;;2.10;;
75691;SDS011;64307;52.508;6.090;2023-02-23T16:06:21;20.95;;;2.90;;
75691;SDS011;64307;52.508;6.090;2023-02-23T16:08:57;20.83;;;2.83;;
75691;SDS011;64307;52.508;6.090;2023-02-23T16:11:43;15.68;;;2.63;;
75691;SDS011;64307;52.508;6.090;2023-02-23T16:14:12;16.95;;;2.50;;
75691;SDS011;64307;52.508;6.090;2023-02-23T16:16:40;19.10;;;2.90;;
75691;SDS011;64307;52.508;6.090;2023-02-23T16:19:09;16.95;;;2.47;;
75691;SDS011;64307;52.508;6.090;2023-02-23T16:21:38;15.98;;;2.75;;
75691;SDS011;64307;52.508;6.090;2023-02-23T16:24:11;18.10;;;1.83;;
75691;SDS011;64307;52.508;6.090;2023-02-23T16:26:46;23.15;;;2.10;;
75691;SDS011;64307;52.508;6.090;2023-02-23T16:29:16;19.00;;;2.95;;
75691;SDS011;64307;52.508;6.090;2023-02-23T16:31:47;13.75;;;1.40;;
75691;SDS011;64307;52.508;6.090;2023-02-23T16:34:33;12.07;;;1.48;;
75691;SDS011;64307;52.508;6.090;2023-02-23T16:37:12;17.65;;;1.63;;
75691;SDS011;64307;52.508;6.090;2023-02-23T16:39:42;19.73;;;2.30;;
75691;SDS011;64307;52.508;6.090;2023-02-23T16:42:11;19.20;;;2.05;;
75691;SDS011;64307;52.508;6.090;2023-02-23T16:44:46;16.05;;;1.80;;
75691;SDS011;64307;52.508;6.090;2023-02-23T16:49:46;18.98;;;2.08;;
75691;SDS011;64307;52.508;6.090;2023-02-23T16:52:14;15.95;;;2.35;;
75691;SDS011;64307;52.508;6.090;2023-02-23T16:54:42;15.35;;;1.98;;
75691;SDS011;64307;52.508;6.090;2023-02-23T16:57:16;22.13;;;3.00;;
75691;SDS011;64307;52.508;6.090;2023-02-23T16:59:46;14.35;;;2.80;;